Milburn, KY (42070)

7:41 AM CDT on September 23, 2014 (GMT -0500)
Eastern Hickman County | Change Station
CLOSE
Current Station
Personal Weather Station
Location: Wingo, KY
Elevation: 466 ft
Nearby Weather Stations

Elev 466 ft 36.63 °N, 88.83 °W | Updated 8 minutes ago

Partly Cloudy
Partly Cloudy
52.3 °F
Feels Like 52.3 °F
N
2.7
Wind Variable Wind from ENE

Today
High -- | Low -- °F
--% Chance of Precip.
Yesterday
High -- | Low -- °F
Precip. -- in
6:44 AM 6:50 PM
Waning Crescent, 1% visible
Pressure 30.28 in
Visibility 10.0 miles
Clouds Clear
Dew Point 50 °F
Humidity 91%
Rainfall 0.00 in
Snow Depth Not available.
UV 0 out of 12
Pollen 6.30 out of 12
Air Quality Not available.
Flu Activity Not available.
METAR KM25 231235Z AUTO 06004KT 10SM CLR 09/08 A3028 RMK AO2

More Conditions Fewer Conditions

Pressure 30.28 in
Visibility 10.0 miles
Clouds Clear
Dew Point 50 °F
Humidity 91%
Rainfall 0.00 in
Snow Depth Not available.
UV 0 out of 12
Pollen 6.30 out of 12
Air Quality Not available.
Flu Activity Not available.
METAR KM25 231235Z AUTO 06004KT 10SM CLR 09/08 A3028 RMK AO2

More Conditions Fewer Conditions

10-Day Weather Forecast

Almanac

Astronomy

Sep. 23, 2014 Rise Set
Actual Time 6:44 AM CDT 6:50 PM CDT
Civil Twilight 6:18 AM CDT 7:16 PM CDT
Nautical Twilight 5:48 AM CDT 7:46 PM CDT
Astronomical Twilight 5:17 AM CDT 8:17 PM CDT
Moon 6:08 AM CDT 6:30 PM CDT
Length of Visible Light 12h 58m
Length of Day
12h 06m
Tomorrow will be 2m 19s shorter.
Waning Crescent, 1% of the Moon is Illuminated
Today
Waning Crescent
Sep 24
New
Oct 1
First Quarter
Oct 8
Full
Oct 15
Last Quarter

Today's Extremes

State Highs State Lows

Community

WunderPhotos

Upload Photos

1,755,662 photos uploaded!

WunderBlogs® & News

Nearby

Snow Depth

Station Depth Elevation
No new snow has been reported.

Earthquake Activity

City Distance Mag. Time & Date
No recent earthquake activity has been reported nearby.
Minimum magnitude displayed is 2.5.

Coastal Water Temperatures

Place Temperature
No Stations Reporting

Nearby Weather Stations